Time;durP1;ratioP1;P1;durP2;ratioP2;P2;SDS_P1;SDS_P2;PMS_P1;PMS_P2;Temp;Humidity;BMP_temperature;BMP_pressure;BME280_temperature;BME280_humidity;BME280_pressure;Samples;Min_cycle;Max_cycle;Signal;HPM_P1;HPM_P2
2020/12/24 00:01:26;;;;;;;14.90;10.23;;;;;;;-1.42;70.26;101716.02;1755741;80;20946;-77
2020/12/24 00:03:55;;;;;;;12.70;9.75;;;;;;;-1.48;70.40;101717.70;1754307;80;21254;-75
2020/12/24 00:06:22;;;;;;;15.30;9.63;;;;;;;-1.49;70.50;101722.83;1754295;80;21022;-76
2020/12/24 00:08:52;;;;;;;11.53;9.05;;;;;;;-1.49;70.60;101723.72;1784491;79;20962;-75
2020/12/24 00:11:20;;;;;;;15.25;9.98;;;;;;;-1.49;70.61;101719.86;1754792;80;20962;-72
2020/12/24 00:13:48;;;;;;;15.20;10.03;;;;;;;-1.44;70.64;101713.89;1755897;79;20950;-75
2020/12/24 00:16:15;;;;;;;12.98;8.45;;;;;;;-1.40;70.62;101716.89;1754927;78;20935;-77
2020/12/24 00:18:44;;;;;;;13.75;8.33;;;;;;;-1.38;70.54;101712.63;1749297;81;21014;-75
2020/12/24 00:21:12;;;;;;;17.40;9.23;;;;;;;-1.41;70.73;101715.19;1749307;81;20982;-76
2020/12/24 00:23:40;;;;;;;17.07;9.55;;;;;;;-1.41;70.81;101712.61;1750745;81;20950;-74
2020/12/24 00:26:08;;;;;;;13.58;9.30;;;;;;;-1.39;70.95;101719.48;1749184;81;20911;-75
2020/12/24 00:28:37;;;;;;;14.15;9.23;;;;;;;-1.35;70.81;101718.66;1748808;81;20966;-75
2020/12/24 00:31:06;;;;;;;13.08;9.73;;;;;;;-1.33;70.92;101719.53;1749014;81;21498;-75
2020/12/24 00:33:34;;;;;;;15.32;10.32;;;;;;;-1.22;70.81;101721.30;1691247;81;20994;-75
2020/12/24 00:36:02;;;;;;;14.18;9.30;;;;;;;-1.21;70.74;101716.17;1747610;81;21073;-75
2020/12/24 00:38:31;;;;;;;16.05;10.75;;;;;;;-1.21;70.77;101711.02;1749069;81;20978;-75
2020/12/24 00:40:59;;;;;;;16.40;10.90;;;;;;;-1.23;70.92;101706.72;1747818;81;20982;-75
2020/12/24 00:43:27;;;;;;;19.40;11.30;;;;;;;-1.24;71.08;101705.88;1747633;81;21044;-74
2020/12/24 00:45:54;;;;;;;16.73;10.43;;;;;;;-1.25;71.22;101702.41;1747690;81;21029;-76
2020/12/24 00:48:24;;;;;;;17.75;11.75;;;;;;;-1.22;71.33;101703.28;1745474;81;21025;-75
2020/12/24 00:50:53;;;;;;;21.73;12.88;;;;;;;-1.26;71.52;101704.56;1747687;81;20955;-75
2020/12/24 00:53:22;;;;;;;24.65;12.47;;;;;;;-1.25;71.65;101695.13;1747718;81;21216;-75
2020/12/24 00:55:50;;;;;;;22.48;13.70;;;;;;;-1.28;71.89;101695.97;1748776;81;21399;-75
2020/12/24 00:58:17;;;;;;;21.82;14.93;;;;;;;-1.29;72.01;101697.23;1747661;81;20954;-76
2020/12/24 01:00:47;;;;;;;30.37;15.53;;;;;;;-1.34;72.24;101695.07;1747538;81;20939;-75
2020/12/24 01:03:15;;;;;;;29.15;14.45;;;;;;;-1.34;72.46;101692.50;1747687;81;21025;-75
2020/12/24 01:05:43;;;;;;;32.08;17.42;;;;;;;-1.34;72.51;101694.64;1747683;81;22142;-75
2020/12/24 01:08:13;;;;;;;25.77;17.25;;;;;;;-1.30;72.56;101691.23;1747308;81;21036;-74
2020/12/24 01:10:41;;;;;;;23.38;15.93;;;;;;;-1.23;72.56;101689.56;1747677;81;21049;-74
2020/12/24 01:13:10;;;;;;;31.48;16.75;;;;;;;-1.18;72.49;101684.44;1747549;81;20927;-75
2020/12/24 01:15:40;;;;;;;26.77;15.18;;;;;;;-1.12;72.37;101682.77;1768574;80;21021;-74
2020/12/24 01:18:08;;;;;;;31.55;18.30;;;;;;;-1.10;72.26;101673.77;1753338;80;21054;-73
2020/12/24 01:20:36;;;;;;;28.40;15.45;;;;;;;-1.09;72.23;101679.34;1755285;80;20994;-74
2020/12/24 01:23:05;;;;;;;28.15;16.48;;;;;;;-1.06;72.17;101672.94;1755616;80;21018;-75
2020/12/24 01:25:34;;;;;;;27.10;16.62;;;;;;;-1.03;72.16;101669.08;1754296;80;21427;-74
2020/12/24 01:28:02;;;;;;;23.18;15.48;;;;;;;-0.97;72.00;101674.27;1755679;80;21022;-75
2020/12/24 01:30:30;;;;;;;22.58;13.78;;;;;;;-0.95;71.95;101667.41;1755574;80;21478;-75
2020/12/24 01:32:58;;;;;;;27.90;16.17;;;;;;;-0.93;71.61;101666.99;1755452;80;21400;-75
2020/12/24 01:35:26;;;;;;;23.67;15.70;;;;;;;-0.99;71.62;101669.53;1755548;80;20955;-76
2020/12/24 01:37:54;;;;;;;27.32;15.78;;;;;;;-1.06;71.88;101674.23;1754120;80;21579;-75
2020/12/24 01:40:23;;;;;;;27.07;14.75;;;;;;;-1.08;71.96;101672.06;1751523;80;21037;-76
2020/12/24 01:42:52;;;;;;;23.07;14.58;;;;;;;-1.09;71.99;101671.22;1755648;80;21182;-75
2020/12/24 01:45:20;;;;;;;24.10;14.20;;;;;;;-1.11;71.95;101661.73;1753954;80;20986;-75
2020/12/24 01:47:49;;;;;;;27.45;16.00;;;;;;;-1.14;72.02;101668.17;1752310;80;21539;-75
2020/12/24 01:50:18;;;;;;;25.00;15.18;;;;;;;-1.14;72.13;101674.60;1755491;80;21277;-75
2020/12/24 01:52:46;;;;;;;24.10;18.02;;;;;;;-1.15;72.16;101667.75;1755501;80;20987;-76
2020/12/24 01:55:14;;;;;;;25.50;15.08;;;;;;;-1.18;72.27;101665.14;1755708;80;21444;-76
2020/12/24 01:57:42;;;;;;;26.73;14.90;;;;;;;-1.17;72.31;101660.45;1729413;80;21033;-76
2020/12/24 02:00:10;;;;;;;26.68;15.60;;;;;;;-1.21;72.42;101664.70;1755613;80;21051;-75
2020/12/24 02:02:38;;;;;;;29.18;16.27;;;;;;;-1.29;72.62;101647.06;1755534;80;20958;-75
2020/12/24 02:05:06;;;;;;;27.48;17.65;;;;;;;-1.29;72.80;101656.95;1755709;80;21085;-74
2020/12/24 02:07:35;;;;;;;34.53;18.65;;;;;;;-1.25;72.84;101658.66;1754500;80;22126;-75
2020/12/24 02:10:03;;;;;;;20.62;13.85;;;;;;;-1.19;72.80;101654.42;1756083;80;21622;-76
2020/12/24 02:12:31;;;;;;;30.95;17.37;;;;;;;-1.17;72.69;101657.88;1757572;80;20955;-76
2020/12/24 02:14:59;;;;;;;29.82;16.82;;;;;;;-1.15;72.70;101661.31;1757631;80;20943;-74
2020/12/24 02:17:27;;;;;;;28.50;15.60;;;;;;;-1.12;72.61;101651.88;1755379;80;20974;-75
2020/12/24 02:19:55;;;;;;;30.48;15.95;;;;;;;-1.11;72.54;101651.04;1755923;80;22172;-76
2020/12/24 02:22:23;;;;;;;28.70;15.58;;;;;;;-1.11;72.43;101647.58;1755570;80;20970;-75
2020/12/24 02:24:51;;;;;;;34.20;17.17;;;;;;;-1.14;72.60;101656.16;1755698;80;21468;-75
2020/12/24 02:27:19;;;;;;;27.95;16.32;;;;;;;-1.11;72.60;101655.30;1755606;79;21014;-76
2020/12/24 02:29:46;;;;;;;35.08;18.00;;;;;;;-1.08;72.68;101648.47;1755675;80;20966;-76
2020/12/24 02:32:15;;;;;;;25.15;15.63;;;;;;;-1.00;72.41;101654.07;1755773;80;21033;-76
2020/12/24 02:34:43;;;;;;;23.55;13.60;;;;;;;-0.96;72.23;101659.67;1755625;80;20974;-76
2020/12/24 02:37:12;;;;;;;22.15;13.93;;;;;;;-1.00;71.98;101656.24;1754334;80;21172;-75
2020/12/24 02:39:41;;;;;;;26.33;15.05;;;;;;;-1.02;71.92;101656.66;1754510;80;20950;-77
2020/12/24 02:42:08;;;;;;;20.27;13.98;;;;;;;-1.05;72.17;101659.20;1756372;80;20995;-76
2020/12/24 02:44:36;;;;;;;19.30;13.10;;;;;;;-1.05;72.03;101656.19;1754914;80;22137;-76
2020/12/24 02:47:04;;;;;;;27.25;12.82;;;;;;;-1.06;72.16;101653.63;1755558;80;21022;-75
2020/12/24 02:49:34;;;;;;;21.15;13.32;;;;;;;-1.09;72.07;101655.77;1755820;80;20962;-77
2020/12/24 02:52:02;;;;;;;24.80;12.47;;;;;;;-1.15;72.04;101652.31;1756655;80;21053;-76
2020/12/24 02:54:30;;;;;;;21.17;14.47;;;;;;;-1.20;72.31;101661.30;1755534;80;20915;-77
2020/12/24 02:57:00;;;;;;;24.75;14.55;;;;;;;-1.16;72.38;101663.44;1755518;80;23152;-77
2020/12/24 02:59:28;;;;;;;22.73;14.13;;;;;;;-1.13;72.30;101669.91;1755719;80;20955;-77
2020/12/24 03:01:56;;;;;;;26.60;13.48;;;;;;;-1.08;72.31;101663.06;1755615;80;20955;-77
2020/12/24 03:04:24;;;;;;;19.25;13.08;;;;;;;-1.03;72.11;101656.64;1754438;80;21010;-76
2020/12/24 03:06:52;;;;;;;19.82;12.28;;;;;;;-1.00;71.97;101662.67;1755816;80;21061;-75
2020/12/24 03:09:23;;;;;;;18.12;12.85;;;;;;;-0.97;71.86;101663.97;1755268;80;21154;-76
2020/12/24 03:11:52;;;;;;;19.05;11.70;;;;;;;-0.99;71.88;101665.67;1756006;80;21056;-77
2020/12/24 03:14:20;;;;;;;21.25;11.85;;;;;;;-0.98;71.60;101661.38;1755860;80;20963;-76
2020/12/24 03:16:49;;;;;;;19.32;12.50;;;;;;;-1.04;71.68;101667.37;1783214;78;21050;-76
2020/12/24 03:19:17;;;;;;;16.87;10.78;;;;;;;-1.03;71.83;101660.50;1749250;81;20951;-74
2020/12/24 03:21:46;;;;;;;17.62;12.15;;;;;;;-1.02;71.82;101664.38;1749889;81;21178;-76
2020/12/24 03:24:16;;;;;;;17.73;10.20;;;;;;;-1.02;71.85;101668.25;1737201;79;20976;-76
2020/12/24 03:26:45;;;;;;;20.35;9.50;;;;;;;-1.02;71.81;101660.92;1785374;79;21322;-77
2020/12/24 03:29:13;;;;;;;16.10;10.82;;;;;;;-1.03;71.89;101662.64;1784583;78;20951;-76
2020/12/24 03:31:43;;;;;;;18.35;10.08;;;;;;;-1.01;71.92;101667.81;1784685;79;20952;-77
2020/12/24 03:34:11;;;;;;;14.85;9.18;;;;;;;-1.01;71.86;101662.23;1784394;79;21750;-75
2020/12/24 03:36:41;;;;;;;12.37;8.08;;;;;;;-1.04;71.90;101666.09;1784222;79;21469;-78
2020/12/24 03:39:09;;;;;;;11.22;7.60;;;;;;;-1.08;71.87;101665.63;1784307;79;21003;-76
2020/12/24 03:41:37;;;;;;;14.73;8.50;;;;;;;-1.13;72.04;101663.47;1784234;79;21394;-77
2020/12/24 03:44:05;;;;;;;11.08;8.25;;;;;;;-1.20;72.33;101660.41;1783871;78;21023;-76
2020/12/24 03:46:33;;;;;;;10.82;7.55;;;;;;;-1.22;72.60;101663.00;1784904;79;21367;-76
2020/12/24 03:49:01;;;;;;;13.00;7.67;;;;;;;-1.23;72.67;101659.97;1786679;79;21012;-75
2020/12/24 03:51:30;;;;;;;14.03;8.90;;;;;;;-1.25;72.66;101660.38;1785683;79;20956;-76
2020/12/24 03:54:00;;;;;;;12.25;8.48;;;;;;;-1.31;72.85;101662.95;1784524;79;20995;-75
2020/12/24 03:56:30;;;;;;;19.82;10.15;;;;;;;-1.36;73.06;101659.03;1819984;79;20995;-76
2020/12/24 03:58:59;;;;;;;12.78;6.97;;;;;;;-1.38;73.29;101663.34;1813458;78;20999;-76
2020/12/24 04:01:27;;;;;;;15.23;8.85;;;;;;;-1.36;73.26;101667.19;1784426;79;21217;-75
2020/12/24 04:03:54;;;;;;;14.05;7.10;;;;;;;-1.34;73.17;101662.48;1784250;79;21039;-75
2020/12/24 04:06:23;;;;;;;11.43;7.28;;;;;;;-1.32;73.11;101674.93;1784200;79;20975;-75
2020/12/24 04:08:50;;;;;;;13.18;7.67;;;;;;;-1.30;73.11;101668.52;1784352;79;21011;-76
2020/12/24 04:11:19;;;;;;;12.15;7.55;;;;;;;-1.29;73.18;101672.39;1786919;78;21217;-75
2020/12/24 04:13:47;;;;;;;11.50;7.60;;;;;;;-1.27;72.95;101677.13;1760432;79;20980;-75
2020/12/24 04:16:21;;;;;;;13.78;7.25;;;;;;;-1.32;72.92;101674.08;1818846;78;20940;-76
2020/12/24 04:18:49;;;;;;;10.93;7.90;;;;;;;-1.37;73.27;101667.62;1784247;79;21059;-75
2020/12/24 04:21:19;;;;;;;12.10;7.85;;;;;;;-1.37;73.20;101670.19;1784385;79;21051;-75
2020/12/24 04:23:52;;;;;;;14.58;7.92;;;;;;;-1.39;73.38;101665.45;1759841;78;20972;-75
2020/12/24 04:26:21;;;;;;;9.63;7.55;;;;;;;-1.38;73.37;101666.31;1800438;78;21011;-75
2020/12/24 04:28:49;;;;;;;12.98;9.98;;;;;;;-1.38;73.32;101665.02;1800299;78;21014;-75
2020/12/24 04:31:17;;;;;;;10.15;7.80;;;;;;;-1.40;73.38;101662.47;1801581;78;20951;-76
2020/12/24 04:33:45;;;;;;;13.68;9.33;;;;;;;-1.40;73.46;101663.75;1802925;78;21007;-76
2020/12/24 04:36:14;;;;;;;11.95;7.22;;;;;;;-1.38;73.63;101664.63;1802921;78;21185;-75
2020/12/24 04:38:42;;;;;;;18.07;8.88;;;;;;;-1.33;73.63;101657.78;1802649;78;21015;-76
2020/12/24 04:41:11;;;;;;;11.85;8.05;;;;;;;-1.29;73.67;101663.78;1803443;78;21011;-76
2020/12/24 04:43:39;;;;;;;15.60;10.55;;;;;;;-1.26;73.51;101667.25;1803616;78;21125;-77
2020/12/24 04:46:08;;;;;;;13.62;9.03;;;;;;;-1.26;73.80;101671.11;1802818;78;21043;-75
2020/12/24 04:48:39;;;;;;;14.78;9.00;;;;;;;-1.18;73.79;101665.14;1776059;78;22560;-76
2020/12/24 04:51:09;;;;;;;13.62;8.98;;;;;;;-1.17;73.71;101663.87;1800302;78;21034;-75
2020/12/24 04:53:37;;;;;;;14.45;9.60;;;;;;;-1.13;73.80;101667.33;1775279;78;20944;-75
2020/12/24 04:56:07;;;;;;;17.85;11.22;;;;;;;-1.15;73.70;101658.74;1799994;78;21038;-76
2020/12/24 04:58:36;;;;;;;15.93;9.50;;;;;;;-1.15;73.80;101654.88;1799651;78;21461;-76
2020/12/24 05:01:04;;;;;;;19.07;9.78;;;;;;;-1.14;73.91;101652.30;1799897;78;21241;-80
2020/12/24 05:03:32;;;;;;;14.45;9.30;;;;;;;-1.13;73.97;101647.59;1799895;78;21005;-76
2020/12/24 05:06:01;;;;;;;13.95;9.38;;;;;;;-1.09;73.89;101642.91;1800323;78;21011;-76
2020/12/24 05:08:29;;;;;;;16.75;8.80;;;;;;;-1.11;73.86;101639.86;1799589;78;21003;-77
2020/12/24 05:11:05;;;;;;;15.43;9.68;;;;;;;-1.10;73.94;101642.88;1799710;78;21376;-76
2020/12/24 05:13:34;;;;;;;16.97;9.13;;;;;;;-1.11;73.90;101643.72;1790117;79;21981;-75
2020/12/24 05:16:14;;;;;;;17.42;9.25;;;;;;;-1.13;73.96;101641.59;1771381;79;21043;-77
2020/12/24 05:18:43;;;;;;;17.65;10.05;;;;;;;-1.15;74.07;101636.44;1770113;79;21058;-75
2020/12/24 05:21:12;;;;;;;15.28;10.23;;;;;;;-1.17;74.08;101635.56;1797835;79;21038;-75
2020/12/24 05:23:40;;;;;;;18.55;10.50;;;;;;;-1.17;74.20;101640.70;1746482;79;21058;-76
2020/12/24 05:26:23;;;;;;;14.65;10.85;;;;;;;-1.16;74.32;101646.27;1797693;79;20997;-78
2020/12/24 05:28:50;;;;;;;17.27;10.20;;;;;;;-1.13;74.32;101642.88;1797829;79;21357;-82
2020/12/24 05:31:34;;;;;;;18.40;12.05;;;;;;;-1.10;74.26;101639.02;1798477;79;21496;-88
2020/12/24 05:34:02;;;;;;;18.82;9.90;;;;;;;-1.08;74.29;101640.75;1799579;78;21070;-82
2020/12/24 05:36:31;;;;;;;21.57;10.63;;;;;;;-1.07;74.09;101637.34;1771890;79;21130;-81
2020/12/24 05:38:59;;;;;;;22.10;10.95;;;;;;;-1.07;74.12;101640.31;1828662;77;20994;-85
2020/12/24 05:41:37;;;;;;;19.37;10.40;;;;;;;-1.09;74.20;101637.75;1801476;78;20952;-84
2020/12/24 05:44:12;;;;;;;19.02;10.43;;;;;;;-1.07;74.20;101639.02;1801474;78;20943;-83
2020/12/24 05:46:45;;;;;;;19.10;10.45;;;;;;;-1.06;74.05;101640.77;1801513;78;21602;-86
2020/12/24 05:49:16;;;;;;;15.30;9.50;;;;;;;-1.11;74.10;101643.72;1801647;78;21385;-85
2020/12/24 05:51:57;;;;;;;19.35;10.08;;;;;;;-1.14;74.01;101643.28;1801012;78;21462;-84
2020/12/24 05:54:30;;;;;;;16.35;9.78;;;;;;;-1.22;74.24;101647.55;1801598;78;21031;-84
2020/12/24 05:56:59;;;;;;;22.75;10.40;;;;;;;-1.25;74.40;101649.66;1801424;78;20892;-77
2020/12/24 05:59:29;;;;;;;18.40;11.03;;;;;;;-1.26;74.60;101649.67;1801385;78;21373;-78
2020/12/24 06:02:17;;;;;;;17.55;10.23;;;;;;;-1.26;74.58;101648.39;1801343;78;20959;-80
2020/12/24 06:04:48;;;;;;;16.65;10.40;;;;;;;-1.27;74.70;101644.95;1750780;77;21243;-79
2020/12/24 06:07:28;;;;;;;14.60;10.32;;;;;;;-1.24;74.73;101656.98;1803167;78;20966;-82
2020/12/24 06:10:08;;;;;;;16.45;11.15;;;;;;;-1.22;74.81;101660.83;1832531;77;20952;-79
2020/12/24 06:12:47;;;;;;;18.80;11.57;;;;;;;-1.20;74.97;101656.55;1801385;78;21145;-83
2020/12/24 06:15:16;;;;;;;17.65;11.33;;;;;;;-1.12;74.88;101666.47;1822548;77;21343;-85
2020/12/24 06:17:47;;;;;;;21.02;11.12;;;;;;;-1.08;74.65;101661.77;1794664;78;21153;-83
2020/12/24 06:20:18;;;;;;;20.52;12.20;;;;;;;-1.06;74.74;101661.36;1794974;78;21014;-85
2020/12/24 06:22:46;;;;;;;17.23;11.10;;;;;;;-1.01;74.52;101667.37;1794785;78;21030;-85
2020/12/24 06:25:14;;;;;;;18.52;11.65;;;;;;;-1.00;74.47;101661.80;1794434;78;21026;-84
2020/12/24 06:27:49;;;;;;;21.05;13.45;;;;;;;-0.99;74.35;101660.52;1769079;78;21022;-86
2020/12/24 06:30:23;;;;;;;20.65;14.00;;;;;;;-1.01;74.39;101663.52;1794639;78;20951;-86
2020/12/24 06:32:53;;;;;;;23.87;14.00;;;;;;;-1.00;74.49;101660.50;1794486;78;21038;-84
2020/12/24 06:35:38;;;;;;;24.47;14.87;;;;;;;-0.99;74.50;101669.53;1794790;78;21463;-83
2020/12/24 06:38:08;;;;;;;24.40;14.38;;;;;;;-1.01;74.46;101662.66;1794648;78;20915;-84
2020/12/24 06:40:38;;;;;;;26.55;14.87;;;;;;;-1.04;74.66;101658.36;1794544;78;21007;-82
2020/12/24 06:43:07;;;;;;;22.82;13.40;;;;;;;-1.02;74.90;101660.52;1794624;78;21479;-82
2020/12/24 06:45:39;;;;;;;23.40;15.08;;;;;;;-0.99;74.74;101660.52;1794300;78;21393;-83
2020/12/24 06:48:21;;;;;;;28.87;16.87;;;;;;;-1.00;74.86;101669.12;1794850;78;21357;-85
2020/12/24 06:50:52;;;;;;;27.52;14.78;;;;;;;-0.97;75.07;101662.68;1795443;78;20935;-83
2020/12/24 06:53:34;;;;;;;27.80;15.20;;;;;;;-0.94;75.00;101661.83;1794326;78;21413;-81
2020/12/24 06:56:22;;;;;;;30.37;16.82;;;;;;;-0.87;75.12;101661.88;1794360;78;21061;-84
2020/12/24 06:59:00;;;;;;;23.00;13.68;;;;;;;-0.82;74.84;101658.44;1794493;78;20990;-82
2020/12/24 07:01:31;;;;;;;26.87;14.53;;;;;;;-0.81;74.57;101657.16;1821574;78;20927;-82
2020/12/24 07:04:05;;;;;;;28.35;12.78;;;;;;;-0.82;74.39;101651.59;1794326;78;20943;-85
2020/12/24 07:06:49;;;;;;;28.90;15.85;;;;;;;-0.89;74.34;101645.56;1794627;78;21428;-81
2020/12/24 07:09:29;;;;;;;24.85;13.90;;;;;;;-0.86;74.44;101653.72;1794665;78;21961;-82
2020/12/24 07:12:00;;;;;;;19.75;12.05;;;;;;;-0.82;74.57;101650.70;1824402;78;21421;-81
2020/12/24 07:14:34;;;;;;;23.87;12.82;;;;;;;-0.83;74.39;101643.41;1794338;78;20958;-83
2020/12/24 07:17:14;;;;;;;25.05;13.25;;;;;;;-0.86;74.08;101652.43;1792955;78;21025;-79
2020/12/24 07:19:44;;;;;;;23.92;12.23;;;;;;;-0.92;74.36;101644.67;1793149;78;21025;-81
2020/12/24 07:22:18;;;;;;;18.12;11.48;;;;;;;-0.93;74.46;101648.13;1793858;78;21171;-81
2020/12/24 07:24:56;;;;;;;20.25;11.35;;;;;;;-0.89;74.54;101650.70;1796773;78;20888;-81
2020/12/24 07:27:24;;;;;;;23.32;12.25;;;;;;;-0.78;74.33;101649.87;1795838;78;21022;-80
2020/12/24 07:29:52;;;;;;;24.98;13.65;;;;;;;-0.73;74.16;101647.76;1794610;78;21498;-82
2020/12/24 07:32:20;;;;;;;22.77;12.13;;;;;;;-0.67;74.16;101647.78;1794807;78;21099;-79
2020/12/24 07:34:55;;;;;;;22.85;14.58;;;;;;;-0.56;73.85;101654.22;1793831;78;21715;-87
2020/12/24 07:37:23;;;;;;;31.30;15.43;;;;;;;-0.58;73.67;101664.09;1794685;78;21045;-88
2020/12/24 07:39:56;;;;;;;29.65;16.50;;;;;;;-0.61;73.71;101659.80;1794360;78;21011;-87
2020/12/24 07:42:47;;;;;;;29.12;18.67;;;;;;;-0.65;73.84;101658.92;1794018;78;21006;-90
2020/12/24 07:45:29;;;;;;;26.48;15.08;;;;;;;-0.82;73.89;101621.98;1793301;77;20994;-86
2020/12/24 07:48:16;;;;;;;30.72;17.57;;;;;;;-0.59;73.91;101650.80;1793694;77;21981;-90
2020/12/24 07:50:51;;;;;;;30.37;17.32;;;;;;;-0.57;73.97;101649.94;1793018;77;21113;-90
2020/12/24 07:53:23;;;;;;;32.28;16.95;;;;;;;-0.53;73.68;101650.39;1828146;77;21055;-87
2020/12/24 07:55:51;;;;;;;28.92;15.83;;;;;;;-0.50;73.71;101647.80;1793580;78;20986;-88
2020/12/24 07:58:29;;;;;;;32.17;17.80;;;;;;;-0.46;73.70;101644.82;1830127;77;20967;-88
2020/12/24 08:01:03;;;;;;;29.18;17.40;;;;;;;-0.40;73.43;101638.80;1796350;78;21132;-91
2020/12/24 08:03:32;;;;;;;29.25;17.35;;;;;;;-0.35;73.36;101639.25;1726004;81;21033;-88
2020/12/24 08:06:06;;;;;;;29.18;16.55;;;;;;;-0.33;73.06;101644.42;1726089;81;20967;-90
2020/12/24 08:08:36;;;;;;;29.92;17.62;;;;;;;-0.34;72.60;101638.82;1724507;81;21034;-90
2020/12/24 08:11:11;;;;;;;28.23;17.25;;;;;;;-0.42;72.71;101642.25;1724222;83;20935;-91
2020/12/24 08:13:41;;;;;;;32.60;19.07;;;;;;;-0.47;72.75;101640.10;1721281;81;21108;-82
2020/12/24 08:16:16;;;;;;;35.05;20.17;;;;;;;-0.52;72.76;101634.49;1701984;83;21076;-85
2020/12/24 08:18:48;;;;;;;37.63;20.65;;;;;;;-0.54;72.96;101628.04;1702069;84;21628;-86
2020/12/24 08:21:25;;;;;;;38.73;20.30;;;;;;;-0.53;72.88;101622.05;1702561;83;21395;-83
2020/12/24 08:23:59;;;;;;;35.68;19.45;;;;;;;-0.54;72.82;101619.46;1702518;84;21024;-79
2020/12/24 08:26:28;;;;;;;30.23;18.67;;;;;;;-0.53;72.88;101621.20;1703035;84;21186;-82
2020/12/24 08:29:05;;;;;;;30.05;17.07;;;;;;;-0.51;72.93;101620.34;1679308;84;20973;-82
2020/12/24 08:31:42;;;;;;;32.73;17.73;;;;;;;-0.42;72.75;101620.34;1702427;83;20946;-83
2020/12/24 08:34:11;;;;;;;29.63;17.25;;;;;;;-0.39;72.45;101614.77;1702725;83;20989;-83
2020/12/24 08:36:44;;;;;;;31.75;18.45;;;;;;;-0.35;72.10;101621.66;1702294;84;21529;-83
2020/12/24 08:39:19;;;;;;;38.67;22.30;;;;;;;-0.39;71.97;101625.08;1678507;84;21676;-83
2020/12/24 08:42:07;;;;;;;36.13;18.65;;;;;;;-0.36;72.23;101619.48;1820739;77;22784;-83
2020/12/24 08:44:38;;;;;;;33.90;19.85;;;;;;;-0.36;71.97;101623.34;1794503;78;20942;-81
2020/12/24 08:47:11;;;;;;;34.63;18.85;;;;;;;-0.38;71.83;101609.59;1729610;81;21172;-81
2020/12/24 08:49:45;;;;;;;35.40;19.35;;;;;;;-0.38;71.99;101607.45;1760190;80;21034;-84
2020/12/24 08:52:22;;;;;;;31.35;17.60;;;;;;;-0.37;72.00;101607.47;1731652;81;20958;-82
2020/12/24 08:55:02;;;;;;;36.40;17.60;;;;;;;-0.31;71.79;101608.77;1738762;81;20998;-81
2020/12/24 08:57:33;;;;;;;27.17;15.55;;;;;;;-0.28;71.72;101612.63;1733318;81;21554;-82
2020/12/24 09:00:10;;;;;;;33.65;18.50;;;;;;;-0.27;71.69;101605.75;1728898;81;22215;-81
2020/12/24 09:02:40;;;;;;;38.92;19.55;;;;;;;-0.25;71.56;101613.91;1737915;81;21471;-83
2020/12/24 09:05:14;;;;;;;32.90;18.23;;;;;;;-0.19;71.56;101602.75;1756612;81;21376;-81
2020/12/24 09:07:45;;;;;;;34.38;19.00;;;;;;;-0.11;71.49;101606.60;1737197;81;20974;-81
2020/12/24 09:13:49;;;;;;;29.98;17.82;;;;;;;0.01;70.98;101606.61;1652003;85;21546;-82
2020/12/24 09:17:08;;;;;;;28.73;17.42;;;;;;;0.14;70.70;101603.17;1806462;78;23968;-82
2020/12/24 09:20:04;;;;;;;30.43;18.45;;;;;;;0.12;70.40;101599.73;1715999;80;21030;-81
2020/12/24 09:26:10;;;;;;;26.70;16.97;;;;;;;0.18;70.34;101611.77;1646632;81;21483;-84
2020/12/24 09:28:55;;;;;;;27.32;17.05;;;;;;;0.15;70.10;101599.72;1689290;81;22227;-81
2020/12/24 09:35:08;;;;;;;30.40;17.82;;;;;;;0.11;70.39;101615.20;1781815;77;22687;-82
2020/12/24 09:37:38;;;;;;;25.10;14.23;;;;;;;0.06;70.30;101602.75;1755047;80;20938;-82
2020/12/24 09:40:38;;;;;;;23.98;14.87;;;;;;;0.01;70.31;101609.63;1704679;81;21159;-83
2020/12/24 09:43:21;;;;;;;28.00;15.90;;;;;;;-0.02;70.46;101597.61;1768064;80;21470;-84
2020/12/24 09:45:56;;;;;;;31.23;17.50;;;;;;;-0.04;70.59;101598.89;1734576;81;20969;-81
2020/12/24 09:48:59;;;;;;;26.68;14.35;;;;;;;-0.04;70.67;101599.32;1763916;81;21044;-83
2020/12/24 09:51:35;;;;;;;;;;;;;;;;;;;;;
2020/12/24 09:54:10;;;;;;;;;;;;;;;;;;;;;
2020/12/24 09:57:28;;;;;;;23.22;14.60;;;;;;;0.08;70.86;101582.97;1817203;78;26335;-81
2020/12/24 10:00:13;;;;;;;25.32;14.80;;;;;;;0.08;70.84;101582.97;1722857;80;21397;-82
2020/12/24 10:03:11;;;;;;;;;;;;;;;;;;;;;
2020/12/24 10:05:52;;;;;;;18.90;11.88;;;;;;;0.14;70.60;101580.39;1699940;83;21097;-84
2020/12/24 10:08:55;;;;;;;23.25;14.70;;;;;;;0.16;70.55;101578.67;1776219;79;22969;-83
2020/12/24 10:16:06;;;;;;;20.32;13.62;;;;;;;0.07;70.71;101578.66;1769620;77;21609;-84
2020/12/24 10:19:10;;;;;;;;;;;;;;;;;;;;;
2020/12/24 10:52:45;;;;;;;22.90;14.28;;;;;;;0.17;71.03;101552.01;1805162;79;27865;-82
2020/12/24 10:55:31;;;;;;;20.02;13.85;;;;;;;0.09;71.05;101552.03;1790519;78;20986;-85
2020/12/24 10:58:19;;;;;;;27.45;14.78;;;;;;;0.09;71.19;101543.42;1817123;77;20867;-80
2020/12/24 11:00:52;;;;;;;26.20;16.77;;;;;;;0.12;71.30;101542.99;1792629;78;21021;-81
2020/12/24 11:03:25;;;;;;;27.25;15.45;;;;;;;0.14;71.37;101546.87;1792257;78;20981;-79
2020/12/24 11:06:20;;;;;;;22.07;13.50;;;;;;;0.19;71.29;101548.56;1813960;78;20942;-81
2020/12/24 11:08:54;;;;;;;21.12;12.63;;;;;;;0.24;71.28;101539.95;1790921;78;20949;-80
2020/12/24 11:11:25;;;;;;;22.05;12.28;;;;;;;0.24;71.15;101530.48;1790681;78;21005;-83
2020/12/24 11:13:53;;;;;;;18.37;12.00;;;;;;;0.16;71.31;101536.13;1790100;78;21359;-88
2020/12/24 11:16:29;;;;;;;25.90;13.38;;;;;;;0.07;71.75;101538.28;1821761;77;21012;-87
2020/12/24 11:18:54;;;;;;;18.92;11.60;;;;;;;0.03;72.08;101538.30;1789156;78;21419;-87
2020/12/24 11:21:28;;;;;;;20.55;11.90;;;;;;;0.03;72.26;101538.30;1821349;77;20985;-86
2020/12/24 11:23:57;;;;;;;24.18;13.83;;;;;;;0.04;72.36;101539.56;1789002;78;21707;-86
2020/12/24 11:26:27;;;;;;;25.00;14.80;;;;;;;0.05;72.49;101531.41;1789558;78;20950;-87
2020/12/24 11:32:03;;;;;;;29.40;15.32;;;;;;;0.15;72.56;101522.34;1775602;79;22518;-85
2020/12/24 11:34:35;;;;;;;25.85;13.98;;;;;;;0.01;72.82;101515.08;1718303;82;20942;-82
2020/12/24 11:37:10;;;;;;;28.50;15.85;;;;;;;-0.09;73.32;101507.81;1720347;82;21497;-85
2020/12/24 11:39:50;;;;;;;28.32;15.48;;;;;;;-0.14;73.61;101511.23;1750834;80;21444;-87
2020/12/24 11:42:20;;;;;;;31.97;17.37;;;;;;;-0.13;73.81;101511.68;1723214;82;20963;-88
2020/12/24 11:44:51;;;;;;;35.43;19.00;;;;;;;-0.13;73.87;101498.80;1723764;81;21046;-86
2020/12/24 11:47:22;;;;;;;33.92;18.82;;;;;;;-0.12;74.05;101506.50;1720784;82;21042;-86
2020/12/24 11:49:52;;;;;;;35.83;20.80;;;;;;;-0.07;74.05;101505.20;1720712;82;21172;-86
2020/12/24 11:52:25;;;;;;;43.23;21.85;;;;;;;-0.03;74.10;101494.03;1720050;80;21007;-82
2020/12/24 11:55:05;;;;;;;38.48;22.35;;;;;;;0.03;73.99;101488.02;1720087;82;21015;-81
2020/12/24 11:57:48;;;;;;;40.63;22.95;;;;;;;0.06;73.94;101491.42;1719992;82;21074;-84
2020/12/24 12:00:40;;;;;;;43.73;23.25;;;;;;;0.13;73.84;101493.55;1720514;82;20947;-86
2020/12/24 12:06:04;;;;;;;42.48;23.65;;;;;;;0.26;73.71;101478.91;1842314;77;22724;-83
2020/12/24 12:08:39;;;;;;;44.42;25.90;;;;;;;0.28;73.64;101493.51;1782311;79;20918;-85
2020/12/24 12:11:10;;;;;;;44.60;25.17;;;;;;;0.32;73.56;101494.37;1783470;79;21414;-79
2020/12/24 12:13:38;;;;;;;45.08;24.47;;;;;;;0.36;73.50;101487.90;1783425;79;20958;-78
2020/12/24 12:16:08;;;;;;;51.63;28.42;;;;;;;0.37;73.56;101489.60;1783452;79;20895;-82
2020/12/24 12:18:41;;;;;;;59.18;27.55;;;;;;;0.38;73.55;101482.30;1783141;78;20951;-82
2020/12/24 12:21:23;;;;;;;48.52;27.00;;;;;;;0.41;73.58;101486.59;1783411;79;20993;-83
2020/12/24 12:23:53;;;;;;;58.90;31.82;;;;;;;0.44;73.71;101484.42;1782668;79;20994;-84
2020/12/24 12:26:21;;;;;;;59.48;30.57;;;;;;;0.50;73.77;101493.00;1783470;79;20986;-83
2020/12/24 12:28:51;;;;;;;58.52;32.73;;;;;;;0.51;73.80;101484.81;1783438;79;21030;-83
2020/12/24 12:31:25;;;;;;;65.47;32.98;;;;;;;0.53;73.88;101475.34;1783543;79;21444;-82
2020/12/24 12:33:54;;;;;;;58.92;32.40;;;;;;;0.55;73.98;101473.63;1783700;79;21013;-85